createdAt,value
2023-02-16T00:00:24.146Z,101538.75
2023-02-16T00:02:50.744Z,101550.97
2023-02-16T00:05:30.038Z,101523.09
2023-02-16T00:07:57.209Z,101560.78
2023-02-16T00:10:25.833Z,101510.16
2023-02-16T00:13:11.801Z,101490.13
2023-02-16T00:15:38.603Z,101525.97
2023-02-16T00:18:22.215Z,101498.00
2023-02-16T00:20:49.431Z,101534.63
2023-02-16T00:23:16.387Z,101545.94
2023-02-16T00:25:43.294Z,101431.44
2023-02-16T00:28:19.277Z,101375.59
2023-02-16T00:30:46.733Z,101455.13
2023-02-16T00:33:18.744Z,101516.22
2023-02-16T00:35:45.892Z,101552.94
2023-02-16T00:38:13.709Z,101565.97
2023-02-16T00:40:41.873Z,101556.38
2023-02-16T00:43:21.897Z,101568.53
2023-02-16T00:45:48.599Z,101418.28
2023-02-16T00:48:15.246Z,101545.88
2023-02-16T00:50:41.896Z,101234.03
2023-02-16T00:53:10.681Z,101545.88
2023-02-16T00:55:39.273Z,101543.19
2023-02-16T00:58:16.532Z,101544.03
2023-02-16T01:00:52.908Z,101547.53
2023-02-16T01:03:24.468Z,101372.81
2023-02-16T01:06:11.597Z,101493.34
2023-02-16T01:08:57.264Z,101544.91
2023-02-16T01:11:24.188Z,101537.09
2023-02-16T01:13:51.858Z,101506.44
2023-02-16T01:16:37.858Z,101412.00
2023-02-16T01:19:05.209Z,101545.75
2023-02-16T01:21:31.713Z,101442.56
2023-02-16T01:23:58.250Z,101370.84
2023-02-16T01:26:25.020Z,101508.09
2023-02-16T01:28:51.752Z,101371.94
2023-02-16T01:31:18.916Z,101481.16
2023-02-16T01:33:45.456Z,101506.53
2023-02-16T01:36:34.913Z,101514.38
2023-02-16T01:39:02.370Z,101521.41
2023-02-16T01:42:03.188Z,101518.03
2023-02-16T01:44:29.588Z,101524.09
2023-02-16T01:47:00.896Z,101522.31
2023-02-16T01:49:27.571Z,101406.09
2023-02-16T01:52:12.050Z,101485.63
2023-02-16T01:54:49.727Z,101507.47
2023-02-16T01:57:40.126Z,101513.56
2023-02-16T02:00:16.497Z,101403.50
2023-02-16T02:02:46.734Z,101505.75
2023-02-16T02:05:36.310Z,101508.41
2023-02-16T02:08:28.977Z,101505.81
2023-02-16T02:11:14.131Z,101506.72
2023-02-16T02:14:09.359Z,101427.28
2023-02-16T02:16:36.045Z,101500.69
2023-02-16T02:19:02.811Z,101396.75
2023-02-16T02:22:22.287Z,101505.16
2023-02-16T02:25:07.075Z,101510.28
2023-02-16T02:27:44.372Z,101498.88
2023-02-16T02:30:28.848Z,101499.75
2023-02-16T02:33:25.425Z,101491.03
2023-02-16T02:36:09.797Z,101490.97
2023-02-16T02:38:51.311Z,101485.63
2023-02-16T02:41:54.707Z,101479.56
2023-02-16T02:44:24.110Z,101403.59
2023-02-16T02:46:51.381Z,101484.78
2023-02-16T02:49:17.951Z,101468.31
2023-02-16T02:51:44.514Z,101440.38
2023-02-16T02:54:34.663Z,101457.78
2023-02-16T02:57:23.044Z,101486.59
2023-02-16T03:00:36.694Z,101465.53
2023-02-16T03:03:06.976Z,101452.41
2023-02-16T03:05:35.551Z,101468.06
2023-02-16T03:08:14.058Z,101487.31
2023-02-16T03:11:03.775Z,101482.88
2023-02-16T03:13:35.238Z,101459.34
2023-02-16T03:16:10.066Z,101461.09
2023-02-16T03:18:57.992Z,101441.00
2023-02-16T03:21:44.962Z,101454.06
2023-02-16T03:24:35.371Z,101375.44
2023-02-16T03:27:21.154Z,101489.00
2023-02-16T03:29:51.301Z,101498.56
2023-02-16T03:32:18.556Z,101434.75
2023-02-16T03:34:45.283Z,101495.09
2023-02-16T03:37:13.463Z,101391.94
2023-02-16T03:39:58.293Z,101329.81
2023-02-16T03:42:25.179Z,101445.22
2023-02-16T03:44:52.634Z,101377.19
2023-02-16T03:47:19.434Z,101430.56
2023-02-16T03:49:46.911Z,101373.94
2023-02-16T03:52:13.543Z,101480.38
2023-02-16T03:54:40.068Z,101395.56
2023-02-16T03:57:06.736Z,101451.47
2023-02-16T03:59:33.346Z,101419.19
2023-02-16T04:02:00.308Z,101437.59
2023-02-16T04:04:26.935Z,101325.91
2023-02-16T04:06:53.455Z,101443.81
2023-02-16T04:09:20.145Z,101480.38
2023-02-16T04:12:04.894Z,101438.44
2023-02-16T04:14:31.529Z,101477.75
2023-02-16T04:16:58.057Z,101461.94
2023-02-16T04:19:24.908Z,101471.56
2023-02-16T04:21:53.070Z,101495.13
2023-02-16T04:24:19.985Z,101325.63
2023-02-16T04:26:46.628Z,101362.25
2023-02-16T04:29:13.174Z,101481.16
2023-02-16T04:31:39.821Z,101358.03
2023-02-16T04:34:06.566Z,101334.53
2023-02-16T04:36:34.434Z,101390.38
2023-02-16T04:39:01.194Z,101351.97
2023-02-16T04:41:27.783Z,101429.59
2023-02-16T04:43:54.451Z,101448.09
2023-02-16T04:46:21.168Z,101437.59
2023-02-16T04:48:47.939Z,101379.94
2023-02-16T04:51:14.780Z,101175.84
2023-02-16T04:53:41.387Z,101439.38
2023-02-16T04:56:12.420Z,101493.59
2023-02-16T04:58:39.345Z,101423.78
2023-02-16T05:01:06.565Z,101434.28
2023-02-16T05:03:33.909Z,101474.41
2023-02-16T05:06:00.848Z,101368.69
2023-02-16T05:08:27.587Z,101349.50
2023-02-16T05:11:12.952Z,101478.84
2023-02-16T05:13:58.122Z,101492.84
2023-02-16T05:16:25.164Z,101369.69
2023-02-16T05:18:51.905Z,101375.88
2023-02-16T05:21:30.875Z,101487.63
2023-02-16T05:24:18.217Z,101416.81
2023-02-16T05:26:44.798Z,101461.34
2023-02-16T05:29:11.434Z,101499.81
2023-02-16T05:31:38.053Z,101282.31
2023-02-16T05:34:05.114Z,101504.09
2023-02-16T05:36:31.766Z,101464.81
2023-02-16T05:38:58.506Z,101342.47
2023-02-16T05:41:25.144Z,101268.31
2023-02-16T05:43:57.912Z,101511.06
2023-02-16T05:46:26.723Z,101463.75
2023-02-16T05:48:53.686Z,101515.22
2023-02-16T05:51:21.232Z,101463.75
2023-02-16T05:53:48.167Z,101444.59
2023-02-16T05:56:15.113Z,101511.03
2023-02-16T05:58:41.866Z,101375.66
2023-02-16T06:01:08.536Z,101464.72
2023-02-16T06:03:36.028Z,101436.75
2023-02-16T06:06:04.085Z,101507.38
2023-02-16T06:08:31.001Z,101314.38
2023-02-16T06:10:58.190Z,101491.66
2023-02-16T06:13:25.278Z,101493.38
2023-02-16T06:15:57.004Z,101515.94
2023-02-16T06:18:24.649Z,101466.84
2023-02-16T06:20:51.645Z,101352.25
2023-02-16T06:23:18.571Z,101525.25
2023-02-16T06:25:49.321Z,101397.59
2023-02-16T06:28:15.937Z,101309.56
2023-02-16T06:30:42.792Z,101438.00
2023-02-16T06:33:09.386Z,101533.34
2023-02-16T06:35:36.041Z,101529.00
2023-02-16T06:38:02.612Z,101539.53
2023-02-16T06:40:29.182Z,101476.56
2023-02-16T06:42:55.893Z,101533.34
2023-02-16T06:45:22.436Z,101459.06
2023-02-16T06:47:48.956Z,101410.22
2023-02-16T06:50:15.586Z,101512.50
2023-02-16T06:52:42.348Z,101454.03
2023-02-16T06:55:09.331Z,101491.53
2023-02-16T06:57:35.822Z,101482.84
2023-02-16T07:00:04.775Z,101539.59
2023-02-16T07:02:31.335Z,101493.22
2023-02-16T07:04:57.913Z,101478.16
2023-02-16T07:07:24.442Z,101493.94
2023-02-16T07:09:51.139Z,101503.56
2023-02-16T07:12:17.824Z,101442.47
2023-02-16T07:14:44.427Z,101458.84
2023-02-16T07:17:11.242Z,101412.44
2023-02-16T07:19:37.779Z,101443.88
2023-02-16T07:22:05.438Z,101552.41
2023-02-16T07:24:32.078Z,101498.97
2023-02-16T07:26:58.629Z,101389.91
2023-02-16T07:29:25.330Z,101486.94
2023-02-16T07:31:52.167Z,101500.72
2023-02-16T07:34:20.933Z,101488.38
2023-02-16T07:36:48.437Z,101516.94
2023-02-16T07:39:15.076Z,101503.81
2023-02-16T07:41:41.862Z,101451.50
2023-02-16T07:44:08.918Z,101488.34
2023-02-16T07:46:35.687Z,101273.31
2023-02-16T07:49:02.488Z,101374.78
2023-02-16T07:51:31.125Z,101567.16
2023-02-16T07:53:58.834Z,101505.13
2023-02-16T07:56:28.248Z,101571.63
2023-02-16T07:58:56.671Z,101540.19
2023-02-16T08:01:24.165Z,101526.13
2023-02-16T08:03:51.091Z,101578.59
2023-02-16T08:06:18.043Z,101582.03
2023-02-16T08:08:45.381Z,101582.06
2023-02-16T08:11:23.370Z,101578.59
2023-02-16T08:13:51.123Z,101579.50
2023-02-16T08:16:24.509Z,101535.69
2023-02-16T08:18:52.309Z,101328.44
2023-02-16T08:21:21.903Z,101521.66
2023-02-16T08:24:02.687Z,101578.47
2023-02-16T08:26:31.533Z,101569.78
2023-02-16T08:28:58.717Z,101499.84
2023-02-16T08:31:29.926Z,101566.03
2023-02-16T08:33:59.536Z,101449.31
2023-02-16T08:36:32.980Z,101511.75
2023-02-16T08:39:00.966Z,101546.81
2023-02-16T08:41:36.868Z,101435.84
2023-02-16T08:44:04.756Z,101579.47
2023-02-16T08:46:33.322Z,101380.09
2023-02-16T08:49:01.113Z,101593.75
2023-02-16T08:51:30.747Z,101318.59
2023-02-16T08:54:00.258Z,101572.25
2023-02-16T08:56:29.767Z,101462.06
2023-02-16T08:58:57.169Z,101441.78
2023-02-16T09:01:23.965Z,101502.97
2023-02-16T09:03:51.323Z,101589.72
2023-02-16T09:06:23.293Z,101582.91
2023-02-16T09:08:57.268Z,101471.81
2023-02-16T09:11:25.061Z,101332.47
2023-02-16T09:13:51.846Z,101597.88
2023-02-16T09:16:21.430Z,101588.25
2023-02-16T09:18:48.795Z,101441.19
2023-02-16T09:21:18.191Z,101557.34
2023-02-16T09:23:48.212Z,101556.47
2023-02-16T09:26:19.546Z,101611.50
2023-02-16T09:28:47.236Z,101579.25
2023-02-16T09:31:20.164Z,101603.81
2023-02-16T09:33:46.952Z,101498.16
2023-02-16T09:36:14.185Z,101536.88
2023-02-16T09:38:41.240Z,101574.72
2023-02-16T09:41:20.124Z,101507.63
2023-02-16T09:43:56.778Z,101558.28
2023-02-16T09:46:25.360Z,101497.53
2023-02-16T09:48:53.228Z,101617.19
2023-02-16T09:51:34.293Z,101601.34
2023-02-16T09:54:16.797Z,101615.94
2023-02-16T09:57:08.718Z,101595.84
2023-02-16T09:59:50.048Z,101561.94
2023-02-16T10:02:46.083Z,101534.06
2023-02-16T10:05:31.202Z,101515.81
2023-02-16T10:08:03.335Z,101489.59
2023-02-16T10:10:53.511Z,101534.13
2023-02-16T10:13:47.265Z,101562.13
2023-02-16T10:16:22.815Z,101522.72
2023-02-16T10:18:53.972Z,101492.28
2023-02-16T10:21:26.143Z,101537.88
2023-02-16T10:24:02.262Z,101594.78
2023-02-16T10:26:36.546Z,101597.34
2023-02-16T10:29:15.875Z,101602.63
2023-02-16T10:32:11.792Z,101599.28
2023-02-16T10:34:47.584Z,101585.38
2023-02-16T10:37:39.192Z,101594.22
2023-02-16T10:40:36.257Z,101599.50
2023-02-16T10:43:18.651Z,101581.41
2023-02-16T10:45:59.266Z,101525.75
2023-02-16T10:48:26.561Z,101564.41
2023-02-16T10:50:59.062Z,101579.38
2023-02-16T10:53:31.699Z,101572.50
2023-02-16T10:55:58.888Z,101479.94
2023-02-16T10:58:40.102Z,101562.97
2023-02-16T11:01:20.461Z,101567.38
2023-02-16T11:03:53.274Z,101433.75
2023-02-16T11:06:23.467Z,101531.53
2023-02-16T11:09:01.216Z,101487.03
2023-02-16T11:11:38.856Z,101488.75
2023-02-16T11:14:21.542Z,101505.28
2023-02-16T11:16:48.460Z,101482.56
2023-02-16T11:19:24.765Z,101540.16
2023-02-16T11:21:58.873Z,101417.03
2023-02-16T11:24:28.123Z,101524.47
2023-02-16T11:27:12.913Z,101522.81
2023-02-16T11:29:40.988Z,101521.06
2023-02-16T11:32:09.424Z,101512.34
2023-02-16T11:34:41.345Z,101510.59
2023-02-16T11:37:28.543Z,101521.94
2023-02-16T11:40:04.831Z,101468.69
2023-02-16T11:42:40.543Z,101499.25
2023-02-16T11:45:09.234Z,101521.03
2023-02-16T11:47:39.784Z,101514.06
2023-02-16T11:50:31.382Z,101507.97
2023-02-16T11:53:10.451Z,101501.88
2023-02-16T11:55:46.217Z,101457.38
2023-02-16T11:58:15.591Z,101508.91
2023-02-16T12:00:52.142Z,101312.63
2023-02-16T12:03:50.492Z,101475.75
2023-02-16T12:06:36.013Z,101501.91
2023-02-16T12:09:21.907Z,101491.38
2023-02-16T12:11:48.729Z,101496.56
2023-02-16T12:14:28.210Z,101493.13
2023-02-16T12:17:13.316Z,101491.44
2023-02-16T12:19:43.405Z,101430.34
2023-02-16T12:22:33.724Z,101461.72
2023-02-16T12:25:04.006Z,101405.03
2023-02-16T12:27:50.267Z,101419.84
2023-02-16T12:30:25.439Z,101481.78
2023-02-16T12:33:41.878Z,101472.19
2023-02-16T12:36:32.377Z,101465.19
2023-02-16T12:39:18.007Z,101473.78
2023-02-16T12:42:23.130Z,101328.97
2023-02-16T12:44:54.412Z,101469.34
2023-02-16T12:47:57.870Z,101397.09
2023-02-16T12:50:27.912Z,101456.38
2023-02-16T12:53:23.104Z,101446.75
2023-02-16T12:55:55.495Z,101416.19
2023-02-16T12:58:44.688Z,101397.81
2023-02-16T13:01:17.245Z,101401.22
2023-02-16T13:03:54.042Z,101451.78
2023-02-16T13:06:29.908Z,101387.28
2023-02-16T13:09:24.865Z,101429.13
2023-02-16T13:12:13.050Z,101432.63
2023-02-16T13:14:43.685Z,101434.38
2023-02-16T13:17:17.948Z,101432.66
2023-02-16T13:19:47.048Z,101426.53
2023-02-16T13:22:37.086Z,101192.22
2023-02-16T13:25:48.002Z,101407.28
2023-02-16T13:28:23.411Z,101398.50
2023-02-16T13:31:29.549Z,101393.22
2023-02-16T13:33:56.516Z,101389.72
2023-02-16T13:36:49.678Z,101379.22
2023-02-16T13:39:22.325Z,101376.44
2023-02-16T13:42:14.553Z,101374.56
2023-02-16T13:44:49.098Z,101356.19
2023-02-16T13:47:24.472Z,101354.47
2023-02-16T13:49:58.514Z,101217.16
2023-02-16T13:52:41.335Z,101375.59
2023-02-16T13:55:34.113Z,101374.72
2023-02-16T13:58:08.913Z,101367.59
2023-02-16T14:00:38.587Z,101323.00
2023-02-16T14:03:21.132Z,101358.53
2023-02-16T14:05:53.543Z,101309.66
2023-02-16T14:08:30.832Z,101343.50
2023-02-16T14:11:03.912Z,101347.97
2023-02-16T14:13:39.691Z,101341.13
2023-02-16T14:16:10.527Z,101227.34
2023-02-16T14:18:53.584Z,101238.75
2023-02-16T14:21:44.366Z,101323.19
2023-02-16T14:24:23.926Z,101343.06
2023-02-16T14:27:05.183Z,101316.81
2023-02-16T14:29:43.342Z,101332.38
2023-02-16T14:32:12.778Z,101341.03
2023-02-16T14:34:58.399Z,101352.53
2023-02-16T14:37:38.405Z,101313.50
2023-02-16T14:40:19.471Z,101357.03
2023-02-16T14:42:57.164Z,101312.59
2023-02-16T14:45:55.404Z,101324.56
2023-02-16T14:48:48.886Z,101312.09
2023-02-16T14:51:50.923Z,101310.94
2023-02-16T14:54:54.438Z,101332.44
2023-02-16T14:57:31.267Z,101288.75
2023-02-16T15:00:31.045Z,101321.06
2023-02-16T15:03:13.970Z,101340.34
2023-02-16T15:05:41.646Z,101240.50
2023-02-16T15:08:23.199Z,101329.06
2023-02-16T15:10:58.439Z,101242.84
2023-02-16T15:13:28.560Z,101228.19
2023-02-16T15:15:59.045Z,101228.34
2023-02-16T15:18:38.630Z,101317.97
2023-02-16T15:21:06.741Z,101331.22
2023-02-16T15:23:35.844Z,101319.88
2023-02-16T15:26:09.413Z,101326.91
2023-02-16T15:28:38.435Z,101281.72
2023-02-16T15:31:08.661Z,101266.84
2023-02-16T15:33:38.258Z,101326.84
2023-02-16T15:36:12.872Z,101313.00
2023-02-16T15:38:42.229Z,101323.41
2023-02-16T15:41:14.001Z,101318.25
2023-02-16T15:43:43.301Z,101332.28
2023-02-16T15:46:41.356Z,101328.81
2023-02-16T15:49:21.686Z,101312.19
2023-02-16T15:51:49.403Z,101215.63
2023-02-16T15:54:28.059Z,101304.19
2023-02-16T15:56:58.355Z,101304.19
2023-02-16T15:59:35.047Z,101302.38
2023-02-16T16:02:36.063Z,101298.88
2023-02-16T16:05:06.005Z,101300.63
2023-02-16T16:07:40.040Z,101300.66
2023-02-16T16:10:21.667Z,101113.69
2023-02-16T16:12:50.679Z,101290.09
2023-02-16T16:15:24.267Z,101239.50
2023-02-16T16:17:53.073Z,101278.53
2023-02-16T16:20:22.194Z,101268.00
2023-02-16T16:22:59.296Z,101263.59
2023-02-16T16:25:30.232Z,101260.09
2023-02-16T16:27:57.921Z,101199.34
2023-02-16T16:30:24.525Z,101265.44
2023-02-16T16:33:02.763Z,101253.31
2023-02-16T16:35:41.935Z,101237.59
2023-02-16T16:38:22.333Z,101224.44
2023-02-16T16:41:02.867Z,101203.63
2023-02-16T16:43:38.354Z,101253.25
2023-02-16T16:46:26.485Z,101201.13
2023-02-16T16:49:03.523Z,101200.34
2023-02-16T16:51:43.115Z,101262.19
2023-02-16T16:54:39.879Z,101185.66
2023-02-16T16:57:15.743Z,101265.72
2023-02-16T16:59:42.311Z,101209.19
2023-02-16T17:02:10.981Z,101268.34
2023-02-16T17:04:37.581Z,101179.69
2023-02-16T17:07:04.224Z,101215.34
2023-02-16T17:09:30.768Z,101217.94
2023-02-16T17:11:58.550Z,101216.28
2023-02-16T17:14:27.577Z,101163.22
2023-02-16T17:16:55.181Z,100974.75
2023-02-16T17:19:23.176Z,101078.88
2023-02-16T17:21:50.400Z,101255.41
2023-02-16T17:24:17.210Z,101244.09
2023-02-16T17:26:43.843Z,101117.38
2023-02-16T17:29:10.384Z,101280.91
2023-02-16T17:31:37.263Z,101140.09
2023-02-16T17:34:04.546Z,101255.75
2023-02-16T17:36:31.146Z,101108.84
2023-02-16T17:38:58.290Z,101250.53
2023-02-16T17:41:30.108Z,101282.81
2023-02-16T17:43:56.920Z,101253.16
2023-02-16T17:46:23.969Z,101175.91
2023-02-16T17:48:53.968Z,101140.19
2023-02-16T17:51:22.269Z,101288.97
2023-02-16T17:53:49.712Z,101270.72
2023-02-16T17:56:18.819Z,101267.16
2023-02-16T17:58:45.674Z,101243.63
2023-02-16T18:01:18.253Z,101260.03
2023-02-16T18:03:44.977Z,101220.91
2023-02-16T18:06:20.398Z,101277.44
2023-02-16T18:08:47.583Z,101280.03
2023-02-16T18:11:14.104Z,101224.38
2023-02-16T18:13:40.665Z,101136.44
2023-02-16T18:16:08.205Z,101122.53
2023-02-16T18:18:36.880Z,101135.44
2023-02-16T18:21:03.799Z,101147.72
2023-02-16T18:23:30.447Z,101256.28
2023-02-16T18:25:57.729Z,101153.78
2023-02-16T18:28:29.472Z,101208.47
2023-02-16T18:30:56.449Z,101264.13
2023-02-16T18:33:23.933Z,101238.81
2023-02-16T18:35:56.062Z,101155.34
2023-02-16T18:38:23.739Z,101175.31
2023-02-16T18:40:53.291Z,101232.69
2023-02-16T18:43:21.080Z,101160.47
2023-02-16T18:45:47.682Z,101159.56
2023-02-16T18:48:14.501Z,101108.34
2023-02-16T18:50:41.032Z,101057.16
2023-02-16T18:53:07.611Z,101247.50
2023-02-16T18:55:35.066Z,101231.03
2023-02-16T18:58:06.038Z,101247.50
2023-02-16T19:00:34.004Z,101232.69
2023-02-16T19:03:00.607Z,101230.03
2023-02-16T19:05:27.444Z,101153.53
2023-02-16T19:07:53.936Z,101154.34
2023-02-16T19:10:20.760Z,101183.09
2023-02-16T19:12:47.288Z,101130.03
2023-02-16T19:15:13.925Z,101268.34
2023-02-16T19:17:40.481Z,101274.38
2023-02-16T19:20:09.847Z,101247.34
2023-02-16T19:22:37.468Z,101196.03
2023-02-16T19:25:07.203Z,101237.69
2023-02-16T19:27:33.838Z,101249.94
2023-02-16T19:30:00.483Z,101190.88
2023-02-16T19:32:27.248Z,101174.34
2023-02-16T19:34:53.808Z,101215.19
2023-02-16T19:37:20.473Z,101261.34
2023-02-16T19:39:47.243Z,101174.44
2023-02-16T19:42:13.883Z,101189.09
2023-02-16T19:44:41.035Z,101142.09
2023-02-16T19:47:07.918Z,101243.84
2023-02-16T19:49:36.494Z,101116.97
2023-02-16T19:52:04.182Z,101163.00
2023-02-16T19:54:34.888Z,101225.56
2023-02-16T19:57:01.746Z,101272.53
2023-02-16T19:59:28.486Z,101227.28
2023-02-16T20:01:55.191Z,101257.66
2023-02-16T20:04:21.844Z,101248.13
2023-02-16T20:06:48.960Z,101202.75
2023-02-16T20:09:17.961Z,101177.69
2023-02-16T20:11:44.919Z,101235.03
2023-02-16T20:14:12.446Z,101215.09
2023-02-16T20:16:40.102Z,101241.09
2023-02-16T20:19:06.869Z,101201.13
2023-02-16T20:21:34.102Z,101168.97
2023-02-16T20:24:03.861Z,101237.69
2023-02-16T20:26:36.007Z,101232.47
2023-02-16T20:29:04.825Z,101238.59
2023-02-16T20:31:35.101Z,101207.34
2023-02-16T20:34:02.180Z,101205.59
2023-02-16T20:36:28.816Z,101162.16
2023-02-16T20:38:55.833Z,101215.19
2023-02-16T20:41:22.377Z,101103.03
2023-02-16T20:43:49.516Z,101048.28
2023-02-16T20:46:17.270Z,101218.50
2023-02-16T20:48:46.470Z,101214.13
2023-02-16T20:51:14.095Z,101210.63
2023-02-16T20:53:41.146Z,101135.97
2023-02-16T20:56:14.422Z,101145.59
2023-02-16T20:58:42.389Z,101186.44
2023-02-16T21:01:21.672Z,101144.72
2023-02-16T21:03:49.168Z,101196.03
2023-02-16T21:06:16.136Z,101017.03
2023-02-16T21:08:43.105Z,101150.94
2023-02-16T21:11:09.881Z,101126.53
2023-02-16T21:13:37.411Z,101102.09
2023-02-16T21:16:04.553Z,101175.06
2023-02-16T21:18:31.361Z,101159.34
2023-02-16T21:20:59.624Z,101122.94
2023-02-16T21:23:26.557Z,101198.50
2023-02-16T21:25:58.676Z,101090.66
2023-02-16T21:28:25.838Z,100924.81
2023-02-16T21:30:52.485Z,101045.38
2023-02-16T21:33:19.148Z,101083.66
2023-02-16T21:35:46.287Z,101083.47
2023-02-16T21:38:12.898Z,101093.00
2023-02-16T21:40:58.207Z,101145.09
2023-02-16T21:43:24.989Z,101118.97
2023-02-16T21:46:01.606Z,101118.09
2023-02-16T21:48:46.799Z,101146.81
2023-02-16T21:51:26.277Z,101144.97
2023-02-16T21:53:53.455Z,100914.91
2023-02-16T21:56:32.866Z,101151.69
2023-02-16T21:58:59.615Z,101043.16
2023-02-16T22:01:32.147Z,101002.34
2023-02-16T22:04:00.390Z,101115.09
2023-02-16T22:06:33.327Z,100964.00
2023-02-16T22:09:01.714Z,101127.00
2023-02-16T22:11:28.297Z,101039.25
2023-02-16T22:13:57.265Z,101014.84
2023-02-16T22:16:25.018Z,101098.91
2023-02-16T22:18:57.344Z,101146.69
2023-02-16T22:21:23.996Z,101132.88
2023-02-16T22:23:50.602Z,101167.69
2023-02-16T22:26:26.793Z,101150.19
2023-02-16T22:28:54.044Z,101089.47
2023-02-16T22:31:22.736Z,101152.00
2023-02-16T22:33:55.416Z,101146.81
2023-02-16T22:36:22.054Z,101185.16
2023-02-16T22:38:48.599Z,101061.81
2023-02-16T22:41:15.172Z,101107.69
2023-02-16T22:43:41.689Z,101096.38
2023-02-16T22:46:13.215Z,101181.53
2023-02-16T22:48:39.858Z,101142.41
2023-02-16T22:51:08.532Z,101123.31
2023-02-16T22:53:35.433Z,101188.53
2023-02-16T22:56:05.662Z,101144.91
2023-02-16T22:58:32.529Z,101076.25
2023-02-16T23:01:02.422Z,101074.50
2023-02-16T23:03:29.963Z,101165.50
2023-02-16T23:05:56.643Z,101132.66
2023-02-16T23:08:23.508Z,101171.56
2023-02-16T23:11:02.402Z,101115.91
2023-02-16T23:13:34.060Z,101110.59
2023-02-16T23:16:07.343Z,101123.63
2023-02-16T23:18:34.630Z,101112.28
2023-02-16T23:21:15.088Z,101139.03
2023-02-16T23:23:41.994Z,101114.66
2023-02-16T23:26:09.098Z,101170.94
2023-02-16T23:28:37.878Z,101175.22
2023-02-16T23:31:04.806Z,101148.22
2023-02-16T23:33:31.634Z,101084.91
2023-02-16T23:35:58.602Z,101171.63
2023-02-16T23:38:25.593Z,101018.91
2023-02-16T23:40:57.350Z,101063.97
2023-02-16T23:43:24.695Z,101159.34
2023-02-16T23:45:51.372Z,101044.06
2023-02-16T23:48:18.106Z,101154.91
2023-02-16T23:50:44.670Z,101092.41
2023-02-16T23:53:11.273Z,101114.06
2023-02-16T23:55:37.833Z,101121.91
2023-02-16T23:58:04.484Z,101067.19
